Time;durP1;ratioP1;P1;durP2;ratioP2;P2;SDS_P1;SDS_P2;PMS_P1;PMS_P2;Temp;Humidity;BMP_temperature;BMP_pressure;BME280_temperature;BME280_humidity;BME280_pressure;Samples;Min_cycle;Max_cycle;Signal;HPM_P1;HPM_P2
2023/08/15 00:00:18;;;;;;;;;1.80;1.80;;;;;;;;5049049;28;8990;-86
2023/08/15 00:02:45;;;;;;;;;2.60;2.60;;;;;;;;5049284;28;8851;-86
2023/08/15 00:05:12;;;;;;;;;5.00;2.60;;;;;;;;5049005;28;8852;-86
2023/08/15 00:07:40;;;;;;;;;2.20;2.20;;;;;;;;5049509;28;8972;-87
2023/08/15 00:10:08;;;;;;;;;3.00;3.00;;;;;;;;5049269;28;8821;-85
2023/08/15 00:12:35;;;;;;;;;4.20;3.80;;;;;;;;5049832;28;9635;-82
2023/08/15 00:15:02;;;;;;;;;4.20;4.20;;;;;;;;5051227;28;8965;-86
2023/08/15 00:17:31;;;;;;;;;3.20;3.20;;;;;;;;5055466;28;8833;-85
2023/08/15 00:19:58;;;;;;;;;6.00;4.60;;;;;;;;5049190;28;8844;-85
2023/08/15 00:22:25;;;;;;;;;5.40;4.00;;;;;;;;5049331;28;8890;-86
2023/08/15 00:24:53;;;;;;;;;3.80;3.80;;;;;;;;5048676;28;9654;-88
2023/08/15 00:27:20;;;;;;;;;3.00;3.00;;;;;;;;5049475;28;8852;-88
2023/08/15 00:29:47;;;;;;;;;3.40;1.80;;;;;;;;5049284;28;8844;-89
2023/08/15 00:32:14;;;;;;;;;6.00;4.80;;;;;;;;5048448;28;8813;-89
2023/08/15 00:34:43;;;;;;;;;4.00;4.00;;;;;;;;5048775;28;9630;-86
2023/08/15 00:37:10;;;;;;;;;5.00;5.00;;;;;;;;5049176;28;8850;-88
2023/08/15 00:39:37;;;;;;;;;5.20;3.40;;;;;;;;5049012;28;8879;-84
2023/08/15 00:42:05;;;;;;;;;2.40;2.40;;;;;;;;5049632;28;8879;-85
2023/08/15 00:44:32;;;;;;;;;4.00;4.00;;;;;;;;5050128;28;8978;-88
2023/08/15 00:46:59;;;;;;;;;3.00;3.00;;;;;;;;5051591;28;8844;-88
2023/08/15 00:49:26;;;;;;;;;4.20;4.20;;;;;;;;5052523;28;8851;-89
2023/08/15 00:51:55;;;;;;;;;4.60;4.60;;;;;;;;5053608;28;8863;-88
2023/08/15 00:54:22;;;;;;;;;5.40;3.80;;;;;;;;5055778;28;8856;-88
2023/08/15 00:56:49;;;;;;;;;2.80;2.00;;;;;;;;5058230;28;8877;-90
2023/08/15 00:59:16;;;;;;;;;4.00;4.00;;;;;;;;5052102;28;8860;-85
2023/08/15 01:01:44;;;;;;;;;2.20;2.20;;;;;;;;5047543;28;9606;-88
2023/08/15 01:04:11;;;;;;;;;2.00;2.00;;;;;;;;5049265;28;8872;-88
2023/08/15 01:06:39;;;;;;;;;2.40;2.40;;;;;;;;5047600;28;8959;-89
2023/08/15 01:09:08;;;;;;;;;4.40;3.00;;;;;;;;5049113;28;8851;-89
2023/08/15 01:11:44;;;;;;;;;3.80;3.80;;;;;;;;5049500;28;8867;-89
2023/08/15 01:14:16;;;;;;;;;4.20;3.00;;;;;;;;5064333;28;8865;-88
2023/08/15 01:16:45;;;;;;;;;3.80;2.20;;;;;;;;5048920;28;8840;-88
2023/08/15 01:19:19;;;;;;;;;3.60;3.60;;;;;;;;5048544;28;8905;-87
2023/08/15 01:21:49;;;;;;;;;2.80;2.80;;;;;;;;5048347;28;8985;-87
2023/08/15 01:24:18;;;;;;;;;3.00;1.80;;;;;;;;5037391;28;8917;-89
2023/08/15 01:26:46;;;;;;;;;1.40;1.40;;;;;;;;5050265;28;8859;-87
2023/08/15 01:29:13;;;;;;;;;2.00;2.00;;;;;;;;5051952;28;8868;-88
2023/08/15 01:31:45;;;;;;;;;4.00;3.40;;;;;;;;5054904;28;8792;-86
2023/08/15 01:34:17;;;;;;;;;2.60;2.60;;;;;;;;5056603;28;8876;-84
2023/08/15 01:36:46;;;;;;;;;4.80;4.00;;;;;;;;5051747;28;8967;-88
2023/08/15 01:39:15;;;;;;;;;3.40;2.40;;;;;;;;5052864;28;8958;-87
2023/08/15 01:41:46;;;;;;;;;2.80;2.80;;;;;;;;5052552;28;8989;-86
2023/08/15 01:44:15;;;;;;;;;4.25;4.25;;;;;;;;5051569;28;8852;-87
2023/08/15 01:46:46;;;;;;;;;2.00;2.00;;;;;;;;5051781;28;8872;-86
2023/08/15 01:49:13;;;;;;;;;5.00;5.00;;;;;;;;5052093;28;8856;-87
2023/08/15 01:51:41;;;;;;;;;4.00;4.00;;;;;;;;5052462;28;8860;-88
2023/08/15 01:54:08;;;;;;;;;3.00;3.00;;;;;;;;5051486;28;8833;-83
2023/08/15 01:56:35;;;;;;;;;2.75;2.75;;;;;;;;5052372;28;8885;-88
2023/08/15 01:59:04;;;;;;;;;3.25;3.25;;;;;;;;5051510;28;9010;-88
2023/08/15 02:01:31;;;;;;;;;3.50;2.00;;;;;;;;5051256;28;8769;-89
2023/08/15 02:03:58;;;;;;;;;2.25;2.25;;;;;;;;5051581;28;8873;-89
2023/08/15 02:06:26;;;;;;;;;2.25;2.25;;;;;;;;5052158;28;8878;-90
2023/08/15 02:08:53;;;;;;;;;1.00;1.00;;;;;;;;5054549;28;8856;-81
2023/08/15 02:11:20;;;;;;;;;3.25;2.00;;;;;;;;5059422;28;8986;-85
2023/08/15 02:13:47;;;;;;;;;1.00;1.00;;;;;;;;5052963;28;8862;-87
2023/08/15 02:16:17;;;;;;;;;2.50;2.50;;;;;;;;5051868;28;8856;-87
2023/08/15 02:18:45;;;;;;;;;1.75;1.75;;;;;;;;5039827;28;9781;-88
2023/08/15 02:21:12;;;;;;;;;3.50;3.00;;;;;;;;5052116;28;8879;-88
2023/08/15 02:23:39;;;;;;;;;3.00;3.00;;;;;;;;5041552;28;8863;-88
2023/08/15 02:26:06;;;;;;;;;2.75;2.75;;;;;;;;5054280;28;8864;-89
2023/08/15 02:28:33;;;;;;;;;2.50;2.50;;;;;;;;5044221;28;8914;-89
2023/08/15 02:31:04;;;;;;;;;2.75;2.75;;;;;;;;5054556;28;8772;-89
2023/08/15 02:33:33;;;;;;;;;2.75;0.75;;;;;;;;5055435;28;8935;-85
2023/08/15 02:36:05;;;;;;;;;4.50;3.25;;;;;;;;5055227;28;8844;-89
2023/08/15 02:38:33;;;;;;;;;4.25;3.50;;;;;;;;5052028;28;8875;-88
2023/08/15 02:41:00;;;;;;;;;1.20;1.20;;;;;;;;5051131;28;9661;-83
2023/08/15 02:43:27;;;;;;;;;2.00;2.00;;;;;;;;5051454;28;8840;-88
2023/08/15 02:45:54;;;;;;;;;2.75;2.75;;;;;;;;5051526;28;8832;-86
2023/08/15 02:48:21;;;;;;;;;2.00;2.00;;;;;;;;5057034;28;9066;-86
2023/08/15 02:50:50;;;;;;;;;2.75;2.75;;;;;;;;5056006;28;8856;-88
2023/08/15 02:53:17;;;;;;;;;2.75;2.75;;;;;;;;5051603;28;8974;-86
2023/08/15 02:55:45;;;;;;;;;3.75;2.75;;;;;;;;5051819;28;8892;-85
2023/08/15 02:58:12;;;;;;;;;2.00;2.00;;;;;;;;5050797;28;8847;-88
2023/08/15 03:00:39;;;;;;;;;3.50;2.00;;;;;;;;5050482;28;8801;-84
2023/08/15 03:03:06;;;;;;;;;2.00;2.00;;;;;;;;5051426;28;8852;-89
2023/08/15 03:05:33;;;;;;;;;1.75;1.75;;;;;;;;5053141;28;8863;-88
2023/08/15 03:08:02;;;;;;;;;4.00;2.75;;;;;;;;5054812;28;8833;-89
2023/08/15 03:10:32;;;;;;;;;2.50;2.50;;;;;;;;5054457;28;8974;-88
2023/08/15 03:12:59;;;;;;;;;1.00;1.00;;;;;;;;5053925;28;8941;-87
2023/08/15 03:15:26;;;;;;;;;3.00;3.00;;;;;;;;5051534;28;8868;-86
2023/08/15 03:17:54;;;;;;;;;3.00;2.50;;;;;;;;5050962;28;8862;-89
2023/08/15 03:20:21;;;;;;;;;4.75;2.25;;;;;;;;5051194;28;8852;-92
2023/08/15 03:22:48;;;;;;;;;1.75;1.75;;;;;;;;5050766;28;8864;-89
2023/08/15 03:25:17;;;;;;;;;2.75;2.75;;;;;;;;5054995;28;8962;-87
2023/08/15 03:27:44;;;;;;;;;3.00;3.00;;;;;;;;5057421;28;8882;-87
2023/08/15 03:30:12;;;;;;;;;1.75;1.75;;;;;;;;5051700;28;8868;-86
2023/08/15 03:32:39;;;;;;;;;3.50;2.75;;;;;;;;5051102;28;8859;-85
2023/08/15 03:35:07;;;;;;;;;5.00;2.00;;;;;;;;5050319;28;8961;-84
2023/08/15 03:37:35;;;;;;;;;2.75;2.75;;;;;;;;5050157;28;8846;-87
2023/08/15 03:40:03;;;;;;;;;2.50;2.50;;;;;;;;5050636;28;8840;-86
2023/08/15 03:42:32;;;;;;;;;1.25;1.25;;;;;;;;5050283;28;8840;-85
2023/08/15 03:44:59;;;;;;;;;3.00;3.00;;;;;;;;5050356;28;8864;-83
2023/08/15 03:47:26;;;;;;;;;3.00;3.00;;;;;;;;5048917;28;8864;-84
2023/08/15 03:49:53;;;;;;;;;2.50;2.50;;;;;;;;5049515;28;8856;-86
2023/08/15 03:52:20;;;;;;;;;3.50;3.50;;;;;;;;5049535;28;8878;-87
2023/08/15 03:54:48;;;;;;;;;1.75;1.75;;;;;;;;5050243;28;8840;-85
2023/08/15 03:57:15;;;;;;;;;2.50;2.50;;;;;;;;5049586;28;9688;-87
2023/08/15 03:59:43;;;;;;;;;2.75;2.75;;;;;;;;5050572;28;8967;-87
2023/08/15 04:02:11;;;;;;;;;3.00;3.00;;;;;;;;5050908;28;8793;-90
2023/08/15 04:04:38;;;;;;;;;2.50;2.50;;;;;;;;5057661;28;8975;-86
2023/08/15 04:07:05;;;;;;;;;4.25;3.25;;;;;;;;5057951;28;8959;-82
2023/08/15 04:09:32;;;;;;;;;4.75;3.25;;;;;;;;5056326;28;8852;-87
2023/08/15 04:11:59;;;;;;;;;3.00;2.75;;;;;;;;5054981;28;8876;-85
2023/08/15 04:14:27;;;;;;;;;2.00;2.00;;;;;;;;5051361;28;8836;-87
2023/08/15 04:16:56;;;;;;;;;3.00;3.00;;;;;;;;5049790;28;8929;-86
2023/08/15 04:19:23;;;;;;;;;5.00;3.00;;;;;;;;5049006;28;8863;-86
2023/08/15 04:21:50;;;;;;;;;3.25;3.25;;;;;;;;5048451;28;8848;-87
2023/08/15 04:24:19;;;;;;;;;2.75;2.75;;;;;;;;5048938;28;8852;-86
2023/08/15 04:26:46;;;;;;;;;3.00;3.00;;;;;;;;5044647;28;8864;-87
2023/08/15 04:29:13;;;;;;;;;4.00;2.75;;;;;;;;5047978;28;8840;-86
2023/08/15 04:31:41;;;;;;;;;3.00;3.00;;;;;;;;5047911;28;8819;-83
2023/08/15 04:34:09;;;;;;;;;1.50;1.50;;;;;;;;5049139;28;8848;-86
2023/08/15 04:36:37;;;;;;;;;2.00;2.00;;;;;;;;5049218;28;8828;-85
2023/08/15 04:39:04;;;;;;;;;1.75;1.75;;;;;;;;5049435;28;8863;-85
2023/08/15 04:41:32;;;;;;;;;2.25;2.25;;;;;;;;5058414;28;8844;-84
2023/08/15 04:43:59;;;;;;;;;1.75;1.75;;;;;;;;5055027;28;8870;-83
2023/08/15 04:46:26;;;;;;;;;1.75;1.75;;;;;;;;5052191;28;8874;-83
2023/08/15 04:48:53;;;;;;;;;2.50;2.50;;;;;;;;5054737;28;8955;-86
2023/08/15 04:51:22;;;;;;;;;2.00;2.00;;;;;;;;5051132;28;8875;-82
2023/08/15 04:53:49;;;;;;;;;2.75;2.75;;;;;;;;5048626;28;8840;-86
2023/08/15 04:56:16;;;;;;;;;2.25;2.25;;;;;;;;5047889;28;8845;-83
2023/08/15 04:58:44;;;;;;;;;2.75;2.75;;;;;;;;5048506;28;8878;-85
2023/08/15 05:01:11;;;;;;;;;3.00;3.00;;;;;;;;5047448;28;8919;-84
2023/08/15 05:03:38;;;;;;;;;3.00;3.00;;;;;;;;5048936;28;8926;-84
2023/08/15 05:06:05;;;;;;;;;2.75;2.75;;;;;;;;5048318;28;8970;-80
2023/08/15 05:08:34;;;;;;;;;2.25;2.25;;;;;;;;5048196;28;8874;-83
2023/08/15 05:11:01;;;;;;;;;3.00;3.00;;;;;;;;5040140;28;8852;-81
2023/08/15 05:13:29;;;;;;;;;2.75;2.75;;;;;;;;5051648;28;8982;-85
2023/08/15 05:15:56;;;;;;;;;4.25;4.25;;;;;;;;5052441;28;8848;-84
2023/08/15 05:18:23;;;;;;;;;5.25;3.50;;;;;;;;5054731;28;8845;-90
2023/08/15 05:20:50;;;;;;;;;3.75;3.75;;;;;;;;5060451;28;9002;-88
2023/08/15 05:23:18;;;;;;;;;2.75;2.75;;;;;;;;5056788;28;8903;-87
2023/08/15 05:25:47;;;;;;;;;3.50;3.50;;;;;;;;5052383;28;8880;-78
2023/08/15 05:28:14;;;;;;;;;2.75;2.75;;;;;;;;5056068;28;8859;-80
2023/08/15 05:30:43;;;;;;;;;5.00;3.75;;;;;;;;5054458;28;8768;-79
2023/08/15 05:33:10;;;;;;;;;3.75;3.75;;;;;;;;5051631;28;8875;-78
2023/08/15 05:35:37;;;;;;;;;3.25;3.25;;;;;;;;5052561;28;8859;-76
2023/08/15 05:38:05;;;;;;;;;5.25;5.25;;;;;;;;5052397;28;8840;-78
2023/08/15 05:40:33;;;;;;;;;2.75;2.75;;;;;;;;5053805;28;8862;-83
2023/08/15 05:43:02;;;;;;;;;3.00;3.00;;;;;;;;5054452;28;8820;-82
2023/08/15 05:45:29;;;;;;;;;4.00;4.00;;;;;;;;5054123;28;8844;-82
2023/08/15 05:47:56;;;;;;;;;2.25;2.25;;;;;;;;5042962;28;8890;-80
2023/08/15 05:50:23;;;;;;;;;3.25;3.25;;;;;;;;5051485;28;8848;-76
2023/08/15 05:52:50;;;;;;;;;6.00;4.50;;;;;;;;5051420;28;8864;-78
2023/08/15 05:55:18;;;;;;;;;3.25;3.25;;;;;;;;5050844;28;8864;-78
2023/08/15 05:57:45;;;;;;;;;6.50;4.75;;;;;;;;5050690;28;8856;-75
2023/08/15 06:00:14;;;;;;;;;3.50;3.50;;;;;;;;5049659;28;8820;-77
2023/08/15 06:02:42;;;;;;;;;5.00;3.50;;;;;;;;5049879;28;8859;-73
2023/08/15 06:05:09;;;;;;;;;4.75;4.75;;;;;;;;5050375;28;8836;-76
2023/08/15 06:07:36;;;;;;;;;5.00;4.50;;;;;;;;5050132;28;9466;-79
2023/08/15 06:10:04;;;;;;;;;4.00;4.00;;;;;;;;5050196;28;9643;-81
2023/08/15 06:12:32;;;;;;;;;4.00;4.00;;;;;;;;5050670;28;8870;-80
2023/08/15 06:15:00;;;;;;;;;8.00;6.00;;;;;;;;5050818;28;8883;-79
2023/08/15 06:17:28;;;;;;;;;2.50;2.50;;;;;;;;5052019;28;8974;-82
2023/08/15 06:19:55;;;;;;;;;6.75;5.00;;;;;;;;5052371;28;8882;-80
2023/08/15 06:22:23;;;;;;;;;5.25;5.25;;;;;;;;5052433;28;8844;-80
2023/08/15 06:24:50;;;;;;;;;5.00;5.00;;;;;;;;5052219;28;9611;-80
2023/08/15 06:27:17;;;;;;;;;4.00;4.00;;;;;;;;5050942;28;8840;-80
2023/08/15 06:29:44;;;;;;;;;4.50;4.50;;;;;;;;5049666;28;9579;-78
2023/08/15 06:32:26;;;;;;;;;6.00;4.50;;;;;;;;5049440;28;8789;-78
2023/08/15 06:34:54;;;;;;;;;3.40;3.40;;;;;;;;5050677;28;8828;-76
2023/08/15 06:37:22;;;;;;;;;6.80;4.00;;;;;;;;5049540;28;8875;-74
2023/08/15 06:39:49;;;;;;;;;5.00;5.00;;;;;;;;5037685;28;8832;-79
2023/08/15 06:42:16;;;;;;;;;3.80;3.80;;;;;;;;5049039;28;9665;-79
2023/08/15 06:44:43;;;;;;;;;8.60;5.00;;;;;;;;5057213;28;9779;-79
2023/08/15 06:47:11;;;;;;;;;6.40;5.00;;;;;;;;5054376;28;8828;-83
2023/08/15 06:49:38;;;;;;;;;3.80;3.80;;;;;;;;5049915;28;8970;-81
2023/08/15 06:52:07;;;;;;;;;4.40;4.40;;;;;;;;5049267;28;8844;-76
2023/08/15 06:54:36;;;;;;;;;4.60;4.60;;;;;;;;5050781;28;8852;-83
2023/08/15 06:57:03;;;;;;;;;3.60;3.00;;;;;;;;5050672;28;8867;-85
2023/08/15 06:59:35;;;;;;;;;4.00;4.00;;;;;;;;5049115;28;8925;-79
2023/08/15 07:02:02;;;;;;;;;5.80;4.60;;;;;;;;5049060;28;8819;-77
2023/08/15 07:04:29;;;;;;;;;4.20;1.60;;;;;;;;5049614;28;8832;-80
2023/08/15 07:06:58;;;;;;;;;4.40;4.40;;;;;;;;5049983;28;8852;-81
2023/08/15 07:09:28;;;;;;;;;5.00;3.40;;;;;;;;5049896;28;8844;-76
2023/08/15 07:11:56;;;;;;;;;5.00;5.00;;;;;;;;5052615;28;8844;-85
2023/08/15 07:14:23;;;;;;;;;4.00;4.00;;;;;;;;5043911;28;8963;-81
2023/08/15 07:16:51;;;;;;;;;4.00;4.00;;;;;;;;5053919;28;8840;-82
2023/08/15 07:19:18;;;;;;;;;3.40;3.40;;;;;;;;5053331;28;8875;-88
2023/08/15 07:21:45;;;;;;;;;4.40;4.40;;;;;;;;5053755;28;8995;-80
2023/08/15 07:24:12;;;;;;;;;4.40;4.40;;;;;;;;5052088;28;8859;-75
2023/08/15 07:26:41;;;;;;;;;5.20;3.80;;;;;;;;5051431;28;8848;-81
2023/08/15 07:29:08;;;;;;;;;8.40;5.40;;;;;;;;5049937;28;8906;-80
2023/08/15 07:31:35;;;;;;;;;5.80;4.60;;;;;;;;5048454;28;8958;-84
2023/08/15 07:34:03;;;;;;;;;5.00;5.00;;;;;;;;5048056;28;9627;-83
2023/08/15 07:36:30;;;;;;;;;5.40;3.80;;;;;;;;5048876;28;8852;-79
2023/08/15 07:38:58;;;;;;;;;5.00;5.00;;;;;;;;5048643;28;9627;-82
2023/08/15 07:41:25;;;;;;;;;3.00;3.00;;;;;;;;5050591;28;8902;-85
2023/08/15 07:43:53;;;;;;;;;5.00;5.00;;;;;;;;5050555;28;8837;-81
2023/08/15 07:46:20;;;;;;;;;4.60;4.60;;;;;;;;5048604;28;8840;-82
2023/08/15 07:48:48;;;;;;;;;5.40;5.40;;;;;;;;5048455;28;8866;-83
2023/08/15 07:51:15;;;;;;;;;6.60;3.40;;;;;;;;5048738;28;8856;-76
2023/08/15 07:53:42;;;;;;;;;4.80;4.80;;;;;;;;5049616;28;8848;-83
2023/08/15 07:56:10;;;;;;;;;3.80;3.80;;;;;;;;5051069;28;8852;-80
2023/08/15 07:58:37;;;;;;;;;4.00;4.00;;;;;;;;5051349;28;8951;-81
2023/08/15 08:01:05;;;;;;;;;4.80;4.80;;;;;;;;5049925;28;8807;-78
2023/08/15 08:03:33;;;;;;;;;5.80;5.80;;;;;;;;5049373;28;8858;-78
2023/08/15 08:06:00;;;;;;;;;6.40;5.20;;;;;;;;5048965;28;8852;-76
2023/08/15 08:08:28;;;;;;;;;5.20;4.80;;;;;;;;5047798;28;8840;-77
2023/08/15 08:10:55;;;;;;;;;5.00;4.20;;;;;;;;5048336;28;8844;-79
2023/08/15 08:13:22;;;;;;;;;3.60;2.80;;;;;;;;5047829;28;8848;-78
2023/08/15 08:15:49;;;;;;;;;3.20;3.20;;;;;;;;5048313;28;8856;-78
2023/08/15 08:18:18;;;;;;;;;3.80;3.80;;;;;;;;5047475;28;8859;-76
2023/08/15 08:20:45;;;;;;;;;3.20;3.20;;;;;;;;5047598;28;8859;-74
2023/08/15 08:23:13;;;;;;;;;7.80;4.80;;;;;;;;5046925;28;8848;-75
2023/08/15 08:25:40;;;;;;;;;3.80;3.80;;;;;;;;5048229;28;8872;-79
2023/08/15 08:28:07;;;;;;;;;4.60;4.40;;;;;;;;5046799;28;8855;-79
2023/08/15 08:30:36;;;;;;;;;4.60;3.20;;;;;;;;5047044;28;8788;-78
2023/08/15 08:33:03;;;;;;;;;2.80;2.80;;;;;;;;5047044;28;8844;-79
2023/08/15 08:35:32;;;;;;;;;3.80;3.80;;;;;;;;5048436;28;8858;-76
2023/08/15 08:37:59;;;;;;;;;6.20;4.80;;;;;;;;5047049;28;8872;-82
2023/08/15 08:40:26;;;;;;;;;4.00;4.00;;;;;;;;5047671;28;8864;-81
2023/08/15 08:42:54;;;;;;;;;3.40;2.20;;;;;;;;5047413;28;8848;-82
2023/08/15 08:45:25;;;;;;;;;4.20;3.00;;;;;;;;5047255;28;8860;-80
2023/08/15 08:47:52;;;;;;;;;7.00;3.40;;;;;;;;5048744;28;8893;-78
2023/08/15 08:50:20;;;;;;;;;3.00;3.00;;;;;;;;5049130;28;8941;-80
2023/08/15 08:52:49;;;;;;;;;2.60;2.60;;;;;;;;5051254;28;8882;-79
2023/08/15 08:55:17;;;;;;;;;3.00;3.00;;;;;;;;5052030;28;8926;-78
2023/08/15 08:57:50;;;;;;;;;7.40;2.80;;;;;;;;5051877;28;8854;-81
2023/08/15 09:00:19;;;;;;;;;3.20;3.20;;;;;;;;5050876;28;8841;-79
2023/08/15 09:02:46;;;;;;;;;2.00;2.00;;;;;;;;5049848;28;9653;-75
2023/08/15 09:05:13;;;;;;;;;4.80;2.80;;;;;;;;5046973;28;8886;-77
2023/08/15 09:07:42;;;;;;;;;1.20;1.20;;;;;;;;5048421;28;8840;-79
2023/08/15 09:10:11;;;;;;;;;2.20;2.20;;;;;;;;5046994;28;8860;-76
2023/08/15 09:12:40;;;;;;;;;2.20;2.20;;;;;;;;5047056;28;8852;-77
2023/08/15 09:15:08;;;;;;;;;2.20;2.20;;;;;;;;5046924;28;8828;-76
2023/08/15 09:17:36;;;;;;;;;1.20;1.20;;;;;;;;5046927;28;8972;-77
2023/08/15 09:20:11;;;;;;;;;4.80;2.20;;;;;;;;5046802;28;8967;-77
2023/08/15 09:22:41;;;;;;;;;1.20;1.20;;;;;;;;5047266;28;8836;-80
2023/08/15 09:25:11;;;;;;;;;1.80;1.80;;;;;;;;5046710;28;8867;-77
2023/08/15 09:27:39;;;;;;;;;2.20;2.20;;;;;;;;5046772;28;8840;-80
2023/08/15 09:30:11;;;;;;;;;1.20;1.20;;;;;;;;5047916;28;9637;-79
2023/08/15 09:32:40;;;;;;;;;2.60;1.20;;;;;;;;5048533;28;8918;-78
2023/08/15 09:35:10;;;;;;;;;2.00;2.00;;;;;;;;5049863;28;9639;-81
2023/08/15 09:37:41;;;;;;;;;6.00;1.00;;;;;;;;5050007;28;8978;-82
2023/08/15 09:40:15;;;;;;;;;2.60;2.00;;;;;;;;5049011;28;8879;-81
2023/08/15 09:42:43;;;;;;;;;2.00;2.00;;;;;;;;5047379;28;8913;-77
2023/08/15 09:45:11;;;;;;;;;1.00;1.00;;;;;;;;5047012;28;8971;-79
2023/08/15 09:47:39;;;;;;;;;1.60;1.60;;;;;;;;5047077;28;9008;-76
2023/08/15 09:50:07;;;;;;;;;1.60;0.00;;;;;;;;5046556;28;9643;-78
2023/08/15 09:52:39;;;;;;;;;1.00;1.00;;;;;;;;5047015;28;8844;-76
2023/08/15 09:55:10;;;;;;;;;2.00;2.00;;;;;;;;5046751;28;8891;-77
2023/08/15 09:57:38;;;;;;;;;2.00;0.20;;;;;;;;5048212;28;8856;-75
2023/08/15 10:00:08;;;;;;;;;0.60;0.00;;;;;;;;5050489;28;8840;-74
2023/08/15 10:02:43;;;;;;;;;0.00;0.00;;;;;;;;5050264;28;8801;-79
2023/08/15 10:05:12;;;;;;;;;1.60;0.80;;;;;;;;5050420;28;8933;-78
2023/08/15 10:07:41;;;;;;;;;0.80;0.80;;;;;;;;5057533;28;8957;-76
2023/08/15 10:10:11;;;;;;;;;0.00;0.00;;;;;;;;5050580;28;8848;-77
2023/08/15 10:12:40;;;;;;;;;1.60;1.20;;;;;;;;5049813;28;9614;-76
2023/08/15 10:15:08;;;;;;;;;2.40;1.80;;;;;;;;5050089;28;8863;-75
2023/08/15 10:17:36;;;;;;;;;2.60;1.20;;;;;;;;5050464;28;9195;-76
2023/08/15 10:20:10;;;;;;;;;0.40;0.40;;;;;;;;5050192;28;8840;-79
2023/08/15 10:22:38;;;;;;;;;2.00;0.60;;;;;;;;5050990;28;8856;-78
2023/08/15 10:25:37;;;;;;;;;1.00;0.00;;;;;;;;5050578;28;8860;-74
2023/08/15 10:28:08;;;;;;;;;0.40;0.40;;;;;;;;5002858;28;8845;-77
2023/08/15 10:30:41;;;;;;;;;0.20;0.20;;;;;;;;5039876;28;8773;-79
2023/08/15 10:33:16;;;;;;;;;1.00;1.00;;;;;;;;5052076;28;8847;-79
2023/08/15 10:35:49;;;;;;;;;1.00;1.00;;;;;;;;5053043;28;8848;-78
2023/08/15 10:38:17;;;;;;;;;1.40;1.40;;;;;;;;5042275;28;8852;-74
2023/08/15 10:40:47;;;;;;;;;0.00;0.00;;;;;;;;5052128;28;8852;-79
2023/08/15 10:43:15;;;;;;;;;1.00;1.00;;;;;;;;5050197;28;8859;-77
2023/08/15 10:45:44;;;;;;;;;0.00;0.00;;;;;;;;5050484;28;8859;-79
2023/08/15 10:48:12;;;;;;;;;1.20;1.20;;;;;;;;5049286;28;8887;-77
2023/08/15 10:50:45;;;;;;;;;1.20;1.20;;;;;;;;5049494;28;8878;-79
2023/08/15 10:53:12;;;;;;;;;3.20;1.00;;;;;;;;5049006;28;8875;-79
2023/08/15 10:55:40;;;;;;;;;0.00;0.00;;;;;;;;5056757;28;8955;-74
2023/08/15 10:58:10;;;;;;;;;0.60;0.60;;;;;;;;5055735;28;8885;-75
2023/08/15 11:00:38;;;;;;;;;1.00;1.00;;;;;;;;5052687;28;8790;-78
2023/08/15 11:03:06;;;;;;;;;2.00;2.00;;;;;;;;5048783;28;8966;-73
2023/08/15 11:05:33;;;;;;;;;1.00;0.20;;;;;;;;5050179;28;8852;-75
2023/08/15 11:08:14;;;;;;;;;1.60;1.60;;;;;;;;5049861;28;8828;-76
2023/08/15 11:10:45;;;;;;;;;1.00;1.00;;;;;;;;5043604;28;8876;-73
2023/08/15 11:13:15;;;;;;;;;1.00;1.00;;;;;;;;5050579;28;8829;-75
2023/08/15 11:15:42;;;;;;;;;3.20;3.20;;;;;;;;5051062;28;8889;-77
2023/08/15 11:18:10;;;;;;;;;3.20;1.20;;;;;;;;5048658;28;8891;-76
2023/08/15 11:20:37;;;;;;;;;2.00;2.00;;;;;;;;5049045;28;8848;-74
2023/08/15 11:23:05;;;;;;;;;2.00;2.00;;;;;;;;5048673;28;8971;-75
2023/08/15 11:25:33;;;;;;;;;3.40;1.00;;;;;;;;5048921;28;8986;-75
2023/08/15 11:28:00;;;;;;;;;1.80;0.60;;;;;;;;5048338;28;8878;-75
2023/08/15 11:30:29;;;;;;;;;2.40;1.00;;;;;;;;5047927;28;8764;-74
2023/08/15 11:32:56;;;;;;;;;1.00;1.00;;;;;;;;5048434;28;8848;-76
2023/08/15 11:35:24;;;;;;;;;2.20;2.20;;;;;;;;5048483;28;9600;-75
2023/08/15 11:37:51;;;;;;;;;0.00;0.00;;;;;;;;5048405;28;8848;-76
2023/08/15 11:40:18;;;;;;;;;2.00;0.60;;;;;;;;5048347;28;8840;-75
2023/08/15 11:42:47;;;;;;;;;1.00;1.00;;;;;;;;5048251;28;9011;-76
2023/08/15 11:45:19;;;;;;;;;1.00;1.00;;;;;;;;5048598;28;9695;-75
2023/08/15 11:47:56;;;;;;;;;0.80;0.00;;;;;;;;5048456;28;8840;-76
2023/08/15 11:50:26;;;;;;;;;0.60;0.60;;;;;;;;5047496;28;8925;-75
2023/08/15 11:52:53;;;;;;;;;1.00;1.00;;;;;;;;5048603;28;8839;-76
2023/08/15 11:55:21;;;;;;;;;0.00;0.00;;;;;;;;5047341;28;8890;-74
2023/08/15 11:57:50;;;;;;;;;1.80;1.80;;;;;;;;5049086;28;8836;-75
2023/08/15 12:00:18;;;;;;;;;1.00;1.00;;;;;;;;5047688;28;8836;-76
2023/08/15 12:02:46;;;;;;;;;1.80;1.00;;;;;;;;5049133;28;8844;-77
2023/08/15 12:05:17;;;;;;;;;1.00;1.00;;;;;;;;5049245;28;8848;-76
2023/08/15 12:07:44;;;;;;;;;2.00;2.00;;;;;;;;5049826;28;8840;-76
2023/08/15 12:10:13;;;;;;;;;2.40;2.20;;;;;;;;5049349;28;8836;-77
2023/08/15 12:12:42;;;;;;;;;1.20;1.00;;;;;;;;5050056;28;8836;-76
2023/08/15 12:15:11;;;;;;;;;1.00;1.00;;;;;;;;5048728;28;8848;-75
2023/08/15 12:17:39;;;;;;;;;1.00;1.00;;;;;;;;5048390;28;8859;-76
2023/08/15 12:20:09;;;;;;;;;1.40;1.00;;;;;;;;5046774;28;9680;-75
2023/08/15 12:22:39;;;;;;;;;3.20;2.00;;;;;;;;5048476;28;8848;-76
2023/08/15 12:25:07;;;;;;;;;2.00;2.00;;;;;;;;5047480;28;8863;-74
2023/08/15 12:27:35;;;;;;;;;2.40;2.40;;;;;;;;5047508;28;9651;-74
2023/08/15 12:30:02;;;;;;;;;1.00;1.00;;;;;;;;5047217;28;8860;-75
2023/08/15 12:32:30;;;;;;;;;1.00;1.00;;;;;;;;5047160;28;8878;-74
2023/08/15 12:34:57;;;;;;;;;1.60;1.00;;;;;;;;5046995;28;8868;-73
2023/08/15 12:37:24;;;;;;;;;3.20;1.80;;;;;;;;5040540;28;8951;-74
2023/08/15 12:39:53;;;;;;;;;1.40;1.40;;;;;;;;5042162;28;8887;-73
2023/08/15 12:42:21;;;;;;;;;3.60;2.00;;;;;;;;5047233;28;8833;-74
2023/08/15 12:44:48;;;;;;;;;1.20;0.20;;;;;;;;5047530;28;8836;-73
2023/08/15 12:47:15;;;;;;;;;2.00;2.00;;;;;;;;5047592;28;8840;-73
2023/08/15 12:49:42;;;;;;;;;1.60;1.60;;;;;;;;5047896;28;8844;-73
2023/08/15 12:52:09;;;;;;;;;1.00;1.00;;;;;;;;5047168;28;8860;-73
2023/08/15 12:54:38;;;;;;;;;2.00;2.00;;;;;;;;5046879;28;8832;-75
2023/08/15 12:57:06;;;;;;;;;2.00;2.00;;;;;;;;5047269;28;8959;-73
2023/08/15 12:59:33;;;;;;;;;1.00;1.00;;;;;;;;5046895;28;9561;-73
2023/08/15 13:02:01;;;;;;;;;2.00;2.00;;;;;;;;5046462;28;8784;-75
2023/08/15 13:04:28;;;;;;;;;0.00;0.00;;;;;;;;5046484;28;8990;-73
2023/08/15 13:06:55;;;;;;;;;2.00;2.00;;;;;;;;5047289;28;8840;-75
2023/08/15 13:09:22;;;;;;;;;1.60;1.60;;;;;;;;5046718;28;8951;-75
2023/08/15 13:11:49;;;;;;;;;1.00;1.00;;;;;;;;5047492;28;8878;-76
2023/08/15 13:14:18;;;;;;;;;2.60;2.00;;;;;;;;5046688;28;8812;-76
2023/08/15 13:16:45;;;;;;;;;1.00;1.00;;;;;;;;5046874;28;8852;-75
2023/08/15 13:19:13;;;;;;;;;1.60;1.60;;;;;;;;5046119;28;8864;-74
2023/08/15 13:21:40;;;;;;;;;3.00;3.00;;;;;;;;5046963;28;9525;-76
2023/08/15 13:24:07;;;;;;;;;1.20;1.20;;;;;;;;5046926;28;8860;-75
2023/08/15 13:26:34;;;;;;;;;3.20;2.40;;;;;;;;5046716;28;8866;-76
2023/08/15 13:29:02;;;;;;;;;2.20;2.00;;;;;;;;5046938;28;8853;-76
2023/08/15 13:31:30;;;;;;;;;1.20;1.20;;;;;;;;5046036;28;8797;-76
2023/08/15 13:33:57;;;;;;;;;0.00;0.00;;;;;;;;5051046;28;8844;-77
2023/08/15 13:36:25;;;;;;;;;2.40;2.40;;;;;;;;5051292;28;8840;-79
2023/08/15 13:38:52;;;;;;;;;2.00;2.00;;;;;;;;5052118;28;8917;-78
2023/08/15 13:41:19;;;;;;;;;2.00;2.00;;;;;;;;5052970;28;8856;-84
2023/08/15 13:43:46;;;;;;;;;3.00;3.00;;;;;;;;5054706;28;8836;-76
2023/08/15 13:46:13;;;;;;;;;3.80;2.20;;;;;;;;5054576;28;9766;-80
2023/08/15 13:48:42;;;;;;;;;2.00;2.00;;;;;;;;5055041;28;8836;-76
2023/08/15 13:51:16;;;;;;;;;3.00;1.20;;;;;;;;5054220;28;8824;-83
2023/08/15 13:53:44;;;;;;;;;3.00;1.40;;;;;;;;5052662;28;8841;-77
2023/08/15 13:56:11;;;;;;;;;3.80;3.80;;;;;;;;5051117;28;9010;-74
2023/08/15 13:58:39;;;;;;;;;4.00;2.20;;;;;;;;5050683;28;8840;-75
2023/08/15 14:01:06;;;;;;;;;1.40;1.40;;;;;;;;5049542;28;8773;-80
2023/08/15 14:03:34;;;;;;;;;0.40;0.40;;;;;;;;5049986;28;8986;-81
2023/08/15 14:06:03;;;;;;;;;1.40;1.40;;;;;;;;5050647;28;8840;-82
2023/08/15 14:08:32;;;;;;;;;2.00;2.00;;;;;;;;5049411;28;9488;-81
2023/08/15 14:10:59;;;;;;;;;1.80;1.80;;;;;;;;5050521;28;8871;-80
2023/08/15 14:13:27;;;;;;;;;1.00;1.00;;;;;;;;5048762;28;8843;-81
2023/08/15 14:15:54;;;;;;;;;2.60;2.60;;;;;;;;5050638;28;8852;-81
2023/08/15 14:18:21;;;;;;;;;3.80;2.00;;;;;;;;5050643;28;8836;-80
2023/08/15 14:20:48;;;;;;;;;2.00;2.00;;;;;;;;5051679;28;8852;-74
2023/08/15 14:23:17;;;;;;;;;2.20;2.20;;;;;;;;5051732;28;8880;-76
2023/08/15 14:25:44;;;;;;;;;3.00;3.00;;;;;;;;5052131;28;8871;-80
2023/08/15 14:28:11;;;;;;;;;2.00;2.00;;;;;;;;5051119;28;9234;-76
2023/08/15 14:30:39;;;;;;;;;2.00;2.00;;;;;;;;5050787;28;8761;-80
2023/08/15 14:33:07;;;;;;;;;3.00;3.00;;;;;;;;5049603;28;8967;-78
2023/08/15 14:35:34;;;;;;;;;2.00;2.00;;;;;;;;5049684;28;8848;-77
2023/08/15 14:38:01;;;;;;;;;2.60;2.60;;;;;;;;5049184;28;8870;-79
2023/08/15 14:40:30;;;;;;;;;4.60;2.60;;;;;;;;5050002;28;8990;-77
2023/08/15 14:42:57;;;;;;;;;2.00;2.00;;;;;;;;5048641;28;8962;-75
2023/08/15 14:45:24;;;;;;;;;2.80;2.80;;;;;;;;5049920;28;8843;-83
2023/08/15 14:47:51;;;;;;;;;3.00;3.00;;;;;;;;5049961;28;9661;-79
2023/08/15 14:50:18;;;;;;;;;2.20;2.20;;;;;;;;5049033;28;8848;-80
2023/08/15 14:52:46;;;;;;;;;3.20;3.20;;;;;;;;5049586;28;8871;-76
2023/08/15 14:55:13;;;;;;;;;6.00;4.60;;;;;;;;5048373;28;8877;-77
2023/08/15 14:57:41;;;;;;;;;4.40;3.80;;;;;;;;5049562;28;8973;-73
2023/08/15 15:00:11;;;;;;;;;2.80;2.80;;;;;;;;5048135;28;8856;-78
2023/08/15 15:02:38;;;;;;;;;2.00;2.00;;;;;;;;5049677;28;8848;-81